Time;durP1;ratioP1;P1;durP2;ratioP2;P2;SDS_P1;SDS_P2;PMS_P1;PMS_P2;Temp;Humidity;BMP_temperature;BMP_pressure;BME280_temperature;BME280_humidity;BME280_pressure;Samples;Min_cycle;Max_cycle;Signal;HPM_P1;HPM_P2
2023/04/05 00:02:02;;;;;;;21.85;20.55;;;;;;;;;;5017294;28;20262;-82
2023/04/05 00:04:33;;;;;;;21.80;20.60;;;;;;;;;;5016502;28;20266;-82
2023/04/05 00:07:01;;;;;;;21.40;20.20;;;;;;;;;;5015707;28;20233;-81
2023/04/05 00:09:28;;;;;;;21.77;20.58;;;;;;;;;;5016191;28;20772;-82
2023/04/05 00:11:57;;;;;;;22.10;20.70;;;;;;;;;;5016538;28;20212;-82
2023/04/05 00:14:24;;;;;;;22.35;20.95;;;;;;;;;;5016397;28;20208;-83
2023/04/05 00:16:51;;;;;;;22.55;21.02;;;;;;;;;;5016458;28;20269;-82
2023/04/05 00:19:18;;;;;;;21.13;20.02;;;;;;;;;;5015743;28;20238;-81
2023/04/05 00:21:45;;;;;;;21.55;20.20;;;;;;;;;;5016496;28;20683;-82
2023/04/05 00:24:14;;;;;;;21.30;20.10;;;;;;;;;;5016063;28;20208;-81
2023/04/05 00:26:42;;;;;;;21.30;20.10;;;;;;;;;;5015652;28;20328;-84
2023/04/05 00:29:11;;;;;;;20.80;19.77;;;;;;;;;;5016212;28;20237;-82
2023/04/05 00:31:38;;;;;;;21.80;20.45;;;;;;;;;;5015858;28;20688;-82
2023/04/05 00:34:07;;;;;;;21.63;20.42;;;;;;;;;;5016194;28;20206;-82
2023/04/05 00:36:36;;;;;;;21.88;20.63;;;;;;;;;;5015594;28;20220;-82
2023/04/05 00:39:03;;;;;;;20.88;19.77;;;;;;;;;;5016060;28;20219;-82
2023/04/05 00:41:29;;;;;;;21.83;20.52;;;;;;;;;;5015979;28;20210;-82
2023/04/05 00:43:58;;;;;;;21.23;20.02;;;;;;;;;;5016054;28;20207;-82
2023/04/05 00:46:28;;;;;;;22.02;20.65;;;;;;;;;;5014874;28;20246;-83
2023/04/05 00:48:55;;;;;;;21.67;20.48;;;;;;;;;;5015731;28;20254;-82
2023/04/05 00:51:22;;;;;;;21.80;20.58;;;;;;;;;;5016662;28;20265;-82
2023/04/05 00:53:51;;;;;;;21.30;20.10;;;;;;;;;;5015690;28;20212;-82
2023/04/05 00:56:20;;;;;;;21.65;20.35;;;;;;;;;;5015625;28;20214;-82
2023/04/05 00:58:50;;;;;;;21.75;20.55;;;;;;;;;;5015041;28;20302;-83
2023/04/05 01:01:19;;;;;;;21.50;20.30;;;;;;;;;;5015793;28;20653;-82
2023/04/05 01:03:48;;;;;;;21.90;20.65;;;;;;;;;;5015637;28;20722;-82
2023/04/05 01:06:23;;;;;;;21.95;20.55;;;;;;;;;;5014845;28;20697;-82
2023/04/05 01:08:55;;;;;;;21.70;20.50;;;;;;;;;;5015716;28;20264;-83
2023/04/05 01:11:23;;;;;;;22.08;20.75;;;;;;;;;;5014985;28;20676;-82
2023/04/05 01:13:50;;;;;;;21.50;20.40;;;;;;;;;;5015448;28;20261;-82
2023/04/05 01:16:17;;;;;;;21.65;20.45;;;;;;;;;;5014959;28;20623;-82
2023/04/05 01:18:46;;;;;;;21.33;19.98;;;;;;;;;;5014969;28;20240;-82
2023/04/05 01:21:22;;;;;;;21.90;20.55;;;;;;;;;;5015061;28;20749;-82
2023/04/05 01:23:54;;;;;;;22.55;21.25;;;;;;;;;;5015792;28;20246;-82
2023/04/05 01:26:42;;;;;;;22.08;20.70;;;;;;;;;;5018182;28;20304;-82
2023/04/05 01:29:33;;;;;;;21.13;19.92;;;;;;;;;;5002031;28;20286;-82
2023/04/05 01:32:04;;;;;;;22.30;20.95;;;;;;;;;;5009108;28;20210;-81
2023/04/05 01:34:34;;;;;;;21.10;19.95;;;;;;;;;;5018519;28;20273;-82
2023/04/05 01:37:03;;;;;;;22.65;21.35;;;;;;;;;;5018124;28;20208;-86
2023/04/05 01:39:30;;;;;;;21.60;20.40;;;;;;;;;;5016765;28;20285;-81
2023/04/05 01:41:58;;;;;;;21.20;19.92;;;;;;;;;;5017166;28;20270;-81
2023/04/05 01:44:25;;;;;;;22.17;20.88;;;;;;;;;;5016912;28;20610;-80
2023/04/05 01:46:53;;;;;;;22.92;21.52;;;;;;;;;;5016263;28;20232;-81
2023/04/05 01:49:21;;;;;;;21.63;20.38;;;;;;;;;;5017389;28;20253;-80
2023/04/05 01:51:48;;;;;;;21.55;20.35;;;;;;;;;;5017143;28;20623;-81
2023/04/05 01:54:15;;;;;;;20.90;19.80;;;;;;;;;;5017089;28;20205;-81
2023/04/05 01:56:42;;;;;;;22.00;20.80;;;;;;;;;;5017106;28;20261;-81
2023/04/05 01:59:09;;;;;;;22.15;20.80;;;;;;;;;;5016560;28;20290;-81
2023/04/05 02:01:36;;;;;;;21.83;20.63;;;;;;;;;;5017665;28;20212;-81
2023/04/05 02:04:03;;;;;;;22.08;20.50;;;;;;;;;;5017500;28;20590;-81
2023/04/05 02:06:32;;;;;;;22.70;21.30;;;;;;;;;;5016722;28;20308;-80
2023/04/05 02:08:59;;;;;;;22.25;20.65;;;;;;;;;;5017271;28;20226;-81
2023/04/05 02:11:26;;;;;;;21.67;20.38;;;;;;;;;;5017192;28;20206;-81
2023/04/05 02:13:53;;;;;;;22.23;20.63;;;;;;;;;;5017123;28;20188;-82
2023/04/05 02:16:20;;;;;;;22.17;20.92;;;;;;;;;;5017236;28;20211;-81
2023/04/05 02:18:49;;;;;;;21.90;20.58;;;;;;;;;;5017333;28;20236;-81
2023/04/05 02:21:17;;;;;;;21.85;20.60;;;;;;;;;;5017179;28;20230;-81
2023/04/05 02:23:45;;;;;;;21.75;20.45;;;;;;;;;;5016934;28;20226;-81
2023/04/05 02:26:12;;;;;;;21.63;20.30;;;;;;;;;;5017350;28;20208;-81
2023/04/05 02:28:39;;;;;;;21.88;20.33;;;;;;;;;;5017502;28;20237;-82
2023/04/05 02:31:10;;;;;;;23.10;21.60;;;;;;;;;;5017661;28;20211;-81
2023/04/05 02:33:37;;;;;;;20.88;19.80;;;;;;;;;;5017378;28;20751;-81
2023/04/05 02:36:05;;;;;;;21.92;20.73;;;;;;;;;;5015798;28;20211;-81
2023/04/05 02:38:32;;;;;;;21.80;20.40;;;;;;;;;;5017225;28;20222;-81
2023/04/05 02:41:01;;;;;;;21.38;20.23;;;;;;;;;;5017567;28;20258;-79
2023/04/05 02:43:28;;;;;;;22.13;20.73;;;;;;;;;;5023863;28;20200;-80
2023/04/05 02:45:55;;;;;;;21.50;20.27;;;;;;;;;;5023723;28;20214;-81
2023/04/05 02:48:22;;;;;;;22.20;20.90;;;;;;;;;;5023731;28;20605;-80
2023/04/05 02:50:49;;;;;;;22.58;20.80;;;;;;;;;;5024064;28;20214;-80
2023/04/05 02:53:17;;;;;;;21.80;20.45;;;;;;;;;;5024108;28;20217;-81
2023/04/05 02:55:45;;;;;;;21.70;20.35;;;;;;;;;;5023982;28;20209;-81
2023/04/05 02:58:14;;;;;;;22.33;20.98;;;;;;;;;;5023458;28;20269;-81
2023/04/05 03:00:41;;;;;;;21.85;20.52;;;;;;;;;;5023301;28;20208;-81
2023/04/05 03:03:09;;;;;;;21.30;20.10;;;;;;;;;;5024083;28;20226;-80
2023/04/05 03:05:36;;;;;;;22.52;20.77;;;;;;;;;;5023984;28;20539;-81
2023/04/05 03:08:03;;;;;;;21.88;20.52;;;;;;;;;;5023596;28;20231;-82
2023/04/05 03:10:33;;;;;;;21.60;20.40;;;;;;;;;;5026257;28;20212;-80
2023/04/05 03:13:00;;;;;;;21.75;20.65;;;;;;;;;;5023868;28;20234;-80
2023/04/05 03:15:29;;;;;;;20.90;19.80;;;;;;;;;;5024573;28;20230;-82
2023/04/05 03:17:56;;;;;;;21.90;20.60;;;;;;;;;;5022975;28;20265;-82
2023/04/05 03:20:23;;;;;;;21.02;19.92;;;;;;;;;;5023713;28;20214;-81
2023/04/05 03:22:51;;;;;;;22.25;20.95;;;;;;;;;;5023729;28;20624;-82
2023/04/05 03:25:18;;;;;;;22.13;20.70;;;;;;;;;;5023805;28;20215;-81
2023/04/05 03:27:45;;;;;;;22.83;20.90;;;;;;;;;;5023305;28;20226;-81
2023/04/05 03:30:13;;;;;;;22.88;21.38;;;;;;;;;;5022994;28;20231;-82
2023/04/05 03:32:41;;;;;;;22.38;21.15;;;;;;;;;;5022962;28;20221;-83
2023/04/05 03:35:08;;;;;;;22.58;21.17;;;;;;;;;;5023948;28;20215;-81
2023/04/05 03:37:35;;;;;;;23.08;21.67;;;;;;;;;;5023301;28;20209;-82
2023/04/05 03:40:07;;;;;;;22.50;21.15;;;;;;;;;;5024331;28;20234;-81
2023/04/05 03:42:34;;;;;;;22.38;21.17;;;;;;;;;;5022672;28;20218;-81
2023/04/05 03:45:04;;;;;;;23.33;21.75;;;;;;;;;;5022793;28;20277;-81
2023/04/05 03:47:32;;;;;;;21.70;20.50;;;;;;;;;;5021297;28;20227;-84
2023/04/05 03:50:01;;;;;;;22.73;21.33;;;;;;;;;;5022756;28;20655;-82
2023/04/05 03:52:28;;;;;;;23.27;21.48;;;;;;;;;;5023671;28;20201;-81
2023/04/05 03:54:55;;;;;;;22.02;20.63;;;;;;;;;;5021876;28;20207;-81
2023/04/05 03:57:22;;;;;;;22.52;20.98;;;;;;;;;;5021500;28;20200;-82
2023/04/05 03:59:49;;;;;;;22.95;21.65;;;;;;;;;;5022218;28;20225;-81
2023/04/05 04:02:17;;;;;;;23.35;21.65;;;;;;;;;;5022385;28;20263;-82
2023/04/05 04:04:44;;;;;;;22.52;21.02;;;;;;;;;;5022965;28;20213;-81
2023/04/05 04:07:12;;;;;;;22.02;20.63;;;;;;;;;;5021110;28;20213;-81
2023/04/05 04:09:40;;;;;;;22.80;21.40;;;;;;;;;;5015846;28;20286;-81
2023/04/05 04:12:07;;;;;;;22.05;20.85;;;;;;;;;;5016291;28;20183;-82
2023/04/05 04:14:35;;;;;;;22.33;21.02;;;;;;;;;;5016518;28;20214;-81
2023/04/05 04:17:02;;;;;;;22.83;21.30;;;;;;;;;;5015766;28;20216;-82
2023/04/05 04:19:29;;;;;;;23.63;22.13;;;;;;;;;;5015917;28;20935;-82
2023/04/05 04:21:57;;;;;;;24.05;22.30;;;;;;;;;;5018497;28;20270;-83
2023/04/05 04:24:26;;;;;;;23.67;22.30;;;;;;;;;;5018644;28;20203;-81
2023/04/05 04:26:53;;;;;;;23.38;21.98;;;;;;;;;;5017641;28;20233;-82
2023/04/05 04:29:32;;;;;;;23.05;21.55;;;;;;;;;;5017397;28;20230;-82
2023/04/05 04:31:59;;;;;;;25.23;23.63;;;;;;;;;;5017835;28;20187;-82
2023/04/05 04:34:29;;;;;;;22.85;21.55;;;;;;;;;;5017641;28;20211;-82
2023/04/05 04:37:00;;;;;;;23.27;21.70;;;;;;;;;;5017639;28;20205;-81
2023/04/05 04:39:30;;;;;;;23.42;22.02;;;;;;;;;;5016649;28;20235;-82
2023/04/05 04:41:57;;;;;;;23.42;21.80;;;;;;;;;;5017829;28;20214;-82
2023/04/05 04:44:29;;;;;;;25.15;23.52;;;;;;;;;;5017372;28;20275;-82
2023/04/05 04:46:56;;;;;;;23.92;22.30;;;;;;;;;;5016253;28;20191;-82
2023/04/05 04:49:24;;;;;;;23.30;21.83;;;;;;;;;;5017319;28;20233;-82
2023/04/05 04:51:51;;;;;;;23.10;21.60;;;;;;;;;;5017889;28;20207;-79
2023/04/05 04:54:21;;;;;;;22.77;21.38;;;;;;;;;;5016496;28;20213;-79
2023/04/05 04:56:49;;;;;;;22.50;21.10;;;;;;;;;;5016703;28;20237;-79
2023/04/05 04:59:16;;;;;;;23.13;21.42;;;;;;;;;;5018132;28;20227;-79
2023/04/05 05:01:45;;;;;;;24.95;22.75;;;;;;;;;;5020613;28;20202;-78
2023/04/05 05:04:12;;;;;;;22.38;21.05;;;;;;;;;;5020831;28;20659;-79
2023/04/05 05:06:39;;;;;;;22.95;21.45;;;;;;;;;;5018159;28;20289;-80
2023/04/05 05:09:06;;;;;;;23.48;21.98;;;;;;;;;;5020434;28;20240;-78
2023/04/05 05:11:33;;;;;;;23.00;21.70;;;;;;;;;;5021011;28;20207;-78
2023/04/05 05:14:02;;;;;;;23.70;22.15;;;;;;;;;;5021036;28;20238;-79
2023/04/05 05:16:29;;;;;;;23.95;22.15;;;;;;;;;;5019771;28;20209;-78
2023/04/05 05:18:56;;;;;;;23.83;22.23;;;;;;;;;;5020033;28;20279;-79
2023/04/05 05:21:23;;;;;;;24.15;22.45;;;;;;;;;;5021004;28;20206;-79
2023/04/05 05:23:50;;;;;;;23.73;22.13;;;;;;;;;;5019853;28;20210;-80
2023/04/05 05:26:17;;;;;;;23.13;21.73;;;;;;;;;;5019090;28;20202;-79
2023/04/05 05:28:44;;;;;;;23.23;21.73;;;;;;;;;;5018987;28;20235;-78
2023/04/05 05:31:13;;;;;;;24.35;22.85;;;;;;;;;;5018079;28;20226;-79
2023/04/05 05:33:40;;;;;;;23.77;22.25;;;;;;;;;;5017592;28;20214;-79
2023/04/05 05:36:07;;;;;;;23.92;22.42;;;;;;;;;;5018944;28;20212;-78
2023/04/05 05:38:35;;;;;;;23.00;21.27;;;;;;;;;;5017725;28;20230;-78
2023/04/05 05:41:01;;;;;;;22.55;21.17;;;;;;;;;;5017425;28;20257;-79
2023/04/05 05:43:28;;;;;;;23.63;22.02;;;;;;;;;;5017623;28;20638;-78
2023/04/05 05:45:55;;;;;;;22.92;21.52;;;;;;;;;;5016682;28;20624;-78
2023/04/05 05:48:24;;;;;;;24.15;22.45;;;;;;;;;;5017526;28;20233;-78
2023/04/05 05:50:51;;;;;;;23.05;21.77;;;;;;;;;;5018260;28;20214;-79
2023/04/05 05:53:18;;;;;;;23.95;22.55;;;;;;;;;;5038043;28;20214;-77
2023/04/05 05:55:45;;;;;;;24.13;22.73;;;;;;;;;;5038016;28;20265;-77
2023/04/05 05:58:12;;;;;;;23.33;21.77;;;;;;;;;;5041315;28;20273;-86
2023/04/05 06:00:39;;;;;;;24.10;22.45;;;;;;;;;;5047654;28;20268;-84
2023/04/05 06:03:06;;;;;;;22.77;21.38;;;;;;;;;;5039010;28;20756;-85
2023/04/05 06:05:35;;;;;;;22.33;21.00;;;;;;;;;;5038205;28;20214;-86
2023/04/05 06:08:02;;;;;;;22.85;21.35;;;;;;;;;;5037884;28;20770;-85
2023/04/05 06:10:30;;;;;;;23.10;21.65;;;;;;;;;;5037879;28;20208;-85
2023/04/05 06:12:57;;;;;;;21.98;20.58;;;;;;;;;;5038036;28;20240;-88
2023/04/05 06:15:24;;;;;;;23.92;22.00;;;;;;;;;;5039914;28;20263;-86
2023/04/05 06:17:51;;;;;;;22.60;21.20;;;;;;;;;;5037211;28;20207;-85
2023/04/05 06:20:18;;;;;;;23.00;21.42;;;;;;;;;;5037216;28;20207;-81
2023/04/05 06:22:46;;;;;;;22.38;20.88;;;;;;;;;;5036871;28;20213;-82
2023/04/05 06:25:13;;;;;;;22.25;20.75;;;;;;;;;;5036660;28;20219;-81
2023/04/05 06:27:40;;;;;;;23.40;21.85;;;;;;;;;;5035373;28;20281;-80
2023/04/05 06:30:08;;;;;;;23.15;21.65;;;;;;;;;;5035492;28;20248;-80
2023/04/05 06:32:35;;;;;;;23.63;22.20;;;;;;;;;;5036787;28;20610;-81
2023/04/05 06:35:02;;;;;;;23.88;22.23;;;;;;;;;;5037584;28;20262;-80
2023/04/05 06:37:30;;;;;;;24.60;22.70;;;;;;;;;;5036109;28;20202;-81
2023/04/05 06:39:59;;;;;;;23.02;21.52;;;;;;;;;;5037233;28;20219;-81
2023/04/05 06:42:26;;;;;;;22.67;20.92;;;;;;;;;;5036777;28;20207;-81
2023/04/05 06:44:54;;;;;;;22.92;21.33;;;;;;;;;;5036947;28;20240;-80
2023/04/05 06:47:21;;;;;;;22.27;20.88;;;;;;;;;;5036023;28;20666;-80
2023/04/05 06:49:48;;;;;;;21.92;20.50;;;;;;;;;;5037460;28;20644;-81
2023/04/05 06:52:15;;;;;;;22.80;21.30;;;;;;;;;;5038348;28;20272;-92
2023/04/05 06:54:42;;;;;;;23.27;21.77;;;;;;;;;;5039004;28;20215;-88
2023/04/05 06:57:10;;;;;;;22.67;21.27;;;;;;;;;;5036405;28;20266;-81
2023/04/05 06:59:37;;;;;;;24.02;22.15;;;;;;;;;;5036517;28;20231;-81
2023/04/05 07:02:04;;;;;;;22.65;20.95;;;;;;;;;;5039631;28;20207;-85
2023/04/05 07:04:35;;;;;;;22.70;21.30;;;;;;;;;;5016413;28;20637;-81
2023/04/05 07:07:02;;;;;;;24.85;22.75;;;;;;;;;;5014988;28;20641;-80
2023/04/05 07:09:31;;;;;;;22.73;21.33;;;;;;;;;;5023444;28;20238;-81
2023/04/05 07:12:00;;;;;;;23.30;21.80;;;;;;;;;;5025147;28;20230;-81
2023/04/05 07:14:30;;;;;;;23.02;21.55;;;;;;;;;;5024553;28;20264;-81
2023/04/05 07:16:57;;;;;;;22.45;21.10;;;;;;;;;;5026839;28;20220;-81
2023/04/05 07:19:25;;;;;;;22.38;21.02;;;;;;;;;;5026930;28;20233;-81
2023/04/05 07:21:52;;;;;;;22.73;21.33;;;;;;;;;;5016715;28;20233;-80
2023/04/05 07:24:19;;;;;;;22.13;20.77;;;;;;;;;;5021054;28;20251;-81
2023/04/05 07:26:46;;;;;;;22.75;21.25;;;;;;;;;;5027558;28;20236;-88
2023/04/05 07:29:13;;;;;;;23.92;22.38;;;;;;;;;;5026778;28;20231;-81
2023/04/05 07:31:42;;;;;;;23.58;22.17;;;;;;;;;;5019443;28;20207;-91
2023/04/05 07:34:09;;;;;;;24.10;22.50;;;;;;;;;;5016960;28;20216;-79
2023/04/05 07:36:36;;;;;;;24.40;22.55;;;;;;;;;;5016131;28;20212;-79
2023/04/05 07:39:04;;;;;;;22.55;21.15;;;;;;;;;;5016325;28;20223;-78
2023/04/05 07:41:31;;;;;;;21.65;20.25;;;;;;;;;;5016052;28;20241;-78
2023/04/05 07:43:59;;;;;;;24.33;22.60;;;;;;;;;;5016269;28;20213;-77
2023/04/05 07:46:26;;;;;;;23.20;21.70;;;;;;;;;;5015405;28;20201;-77
2023/04/05 07:48:55;;;;;;;23.40;21.90;;;;;;;;;;5016136;28;20260;-78
2023/04/05 07:51:22;;;;;;;23.13;21.50;;;;;;;;;;5015328;28;20209;-80
2023/04/05 07:53:49;;;;;;;23.80;22.00;;;;;;;;;;5018583;28;20465;-79
2023/04/05 07:56:16;;;;;;;23.05;21.52;;;;;;;;;;5026648;28;20229;-83
2023/04/05 07:58:43;;;;;;;23.70;21.60;;;;;;;;;;5026518;28;20221;-79
2023/04/05 08:01:11;;;;;;;21.92;20.50;;;;;;;;;;5019649;28;20212;-81
2023/04/05 08:03:38;;;;;;;22.98;21.48;;;;;;;;;;5017313;28;20259;-79
2023/04/05 08:06:16;;;;;;;23.00;21.42;;;;;;;;;;5016674;28;20587;-80
2023/04/05 08:08:43;;;;;;;22.95;21.55;;;;;;;;;;5016004;28;20233;-80
2023/04/05 08:11:10;;;;;;;23.00;21.60;;;;;;;;;;5015291;28;20208;-80
2023/04/05 08:13:40;;;;;;;22.77;21.33;;;;;;;;;;5014646;28;20352;-81
2023/04/05 08:16:07;;;;;;;23.20;21.80;;;;;;;;;;5015226;28;20209;-80
2023/04/05 08:18:34;;;;;;;24.58;22.70;;;;;;;;;;5015314;28;20233;-80
2023/04/05 08:21:01;;;;;;;23.70;21.75;;;;;;;;;;5015644;28;20658;-80
2023/04/05 08:23:30;;;;;;;23.10;21.50;;;;;;;;;;5015031;28;20215;-80
2023/04/05 08:25:57;;;;;;;22.17;20.67;;;;;;;;;;5016261;28;20216;-81
2023/04/05 08:28:24;;;;;;;23.58;22.17;;;;;;;;;;5020195;28;20232;-81
2023/04/05 08:30:54;;;;;;;24.17;22.23;;;;;;;;;;5019550;28;20731;-81
2023/04/05 08:33:21;;;;;;;24.57;22.90;;;;;;;;;;5018791;28;20204;-80
2023/04/05 08:35:48;;;;;;;22.83;21.40;;;;;;;;;;5018048;28;20529;-81
2023/04/05 08:38:15;;;;;;;23.50;21.70;;;;;;;;;;5018569;28;20237;-80
2023/04/05 08:40:44;;;;;;;22.47;20.93;;;;;;;;;;5018872;28;20205;-80
2023/04/05 08:43:13;;;;;;;22.95;21.30;;;;;;;;;;5018374;28;20874;-80
2023/04/05 08:45:45;;;;;;;23.55;22.05;;;;;;;;;;5017096;28;20736;-80
2023/04/05 08:48:12;;;;;;;22.40;21.00;;;;;;;;;;5018164;28;20644;-81
2023/04/05 08:50:39;;;;;;;23.63;21.93;;;;;;;;;;5017815;28;20427;-80
2023/04/05 08:53:09;;;;;;;24.23;22.38;;;;;;;;;;5016904;28;20937;-80
2023/04/05 08:55:36;;;;;;;23.40;21.80;;;;;;;;;;5016067;28;20210;-80
2023/04/05 08:58:08;;;;;;;23.00;21.60;;;;;;;;;;5017272;28;20518;-80
2023/04/05 09:00:35;;;;;;;24.70;22.85;;;;;;;;;;5017026;28;20510;-78
2023/04/05 09:03:03;;;;;;;23.20;21.80;;;;;;;;;;5017607;28;20209;-81
2023/04/05 09:05:30;;;;;;;23.65;21.98;;;;;;;;;;5025144;28;20472;-81
2023/04/05 09:07:58;;;;;;;24.27;22.70;;;;;;;;;;5025401;28;20213;-80
2023/04/05 09:10:26;;;;;;;24.37;22.53;;;;;;;;;;5024718;28;20488;-80
2023/04/05 09:12:54;;;;;;;24.45;22.67;;;;;;;;;;5025622;28;20467;-80
2023/04/05 09:15:23;;;;;;;24.87;22.97;;;;;;;;;;5024618;28;20267;-80
2023/04/05 09:17:50;;;;;;;24.53;22.80;;;;;;;;;;5025393;28;20423;-81
2023/04/05 09:20:17;;;;;;;23.97;22.47;;;;;;;;;;5025170;28;20477;-81
2023/04/05 09:22:45;;;;;;;24.25;22.75;;;;;;;;;;5024488;28;20956;-78
2023/04/05 09:25:12;;;;;;;24.30;22.70;;;;;;;;;;5024908;28;20209;-78
2023/04/05 09:27:55;;;;;;;24.92;23.23;;;;;;;;;;5023990;28;20495;-79
2023/04/05 09:30:24;;;;;;;25.33;23.70;;;;;;;;;;5024765;28;20209;-78
2023/04/05 09:32:51;;;;;;;24.73;22.95;;;;;;;;;;5024393;28;20444;-79
2023/04/05 09:35:20;;;;;;;25.02;23.13;;;;;;;;;;5023677;28;20205;-79
2023/04/05 09:37:53;;;;;;;24.93;23.33;;;;;;;;;;5023046;28;20214;-79
2023/04/05 09:40:20;;;;;;;24.27;22.65;;;;;;;;;;5020700;28;20462;-78
2023/04/05 09:42:47;;;;;;;23.30;21.70;;;;;;;;;;5018218;28;20617;-79
2023/04/05 09:45:15;;;;;;;24.43;22.70;;;;;;;;;;5018826;28;20505;-79
2023/04/05 09:47:44;;;;;;;24.50;22.57;;;;;;;;;;5021413;28;20482;-79
2023/04/05 09:50:19;;;;;;;24.20;22.60;;;;;;;;;;5023417;28;20883;-79
2023/04/05 09:52:46;;;;;;;24.40;22.80;;;;;;;;;;5022424;28;20505;-79
2023/04/05 09:55:13;;;;;;;24.48;22.90;;;;;;;;;;5022845;28;20795;-79
2023/04/05 09:57:42;;;;;;;25.02;23.33;;;;;;;;;;5021501;28;20209;-78
2023/04/05 10:00:18;;;;;;;25.47;23.67;;;;;;;;;;5022161;28;20197;-79
2023/04/05 10:02:48;;;;;;;25.03;23.30;;;;;;;;;;5021880;28;20434;-78
2023/04/05 10:05:15;;;;;;;25.30;23.70;;;;;;;;;;5023451;28;20445;-79
2023/04/05 10:07:42;;;;;;;26.30;24.40;;;;;;;;;;5021294;28;20871;-82
2023/04/05 10:10:11;;;;;;;23.50;22.00;;;;;;;;;;5021742;28;20859;-79
2023/04/05 10:12:40;;;;;;;25.27;23.60;;;;;;;;;;5021894;28;20908;-79
2023/04/05 10:15:07;;;;;;;27.07;25.37;;;;;;;;;;5020967;28;20428;-79
2023/04/05 10:17:38;;;;;;;25.47;23.87;;;;;;;;;;5019542;28;20472;-80
2023/04/05 10:20:11;;;;;;;24.93;23.13;;;;;;;;;;5020962;28;20483;-79
2023/04/05 10:22:41;;;;;;;24.47;22.73;;;;;;;;;;5021651;28;20462;-78
2023/04/05 10:25:11;;;;;;;24.37;22.77;;;;;;;;;;5022695;28;20471;-80
2023/04/05 10:27:43;;;;;;;24.97;23.17;;;;;;;;;;5021559;28;20441;-80
2023/04/05 10:30:10;;;;;;;25.47;23.87;;;;;;;;;;5030384;28;20519;-79
2023/04/05 10:32:54;;;;;;;25.90;24.30;;;;;;;;;;5025262;28;20934;-79
2023/04/05 10:35:25;;;;;;;25.90;24.10;;;;;;;;;;5026286;28;20424;-80
2023/04/05 10:38:00;;;;;;;25.90;24.20;;;;;;;;;;5025754;28;20407;-80
2023/04/05 10:40:29;;;;;;;26.33;24.73;;;;;;;;;;5024090;28;20478;-79
2023/04/05 10:42:58;;;;;;;25.20;23.60;;;;;;;;;;5024512;28;20934;-80
2023/04/05 10:45:26;;;;;;;23.70;22.10;;;;;;;;;;5023899;28;20460;-80
2023/04/05 10:47:55;;;;;;;25.30;23.50;;;;;;;;;;5024161;28;20552;-80
2023/04/05 10:50:24;;;;;;;24.37;22.50;;;;;;;;;;5021094;28;21045;-80
2023/04/05 10:52:52;;;;;;;24.50;22.90;;;;;;;;;;5022203;28;20866;-80
2023/04/05 10:55:19;;;;;;;24.63;22.93;;;;;;;;;;5021118;28;20423;-79
2023/04/05 10:57:47;;;;;;;25.60;23.67;;;;;;;;;;5021030;28;20418;-80
2023/04/05 11:00:16;;;;;;;25.77;24.17;;;;;;;;;;5019466;28;20559;-80
2023/04/05 11:02:43;;;;;;;25.77;24.07;;;;;;;;;;5019156;28;20432;-80
2023/04/05 11:05:25;;;;;;;26.40;24.80;;;;;;;;;;5020302;28;20948;-80
2023/04/05 11:07:55;;;;;;;26.13;24.23;;;;;;;;;;5017015;28;20423;-80
2023/04/05 11:10:23;;;;;;;24.87;23.27;;;;;;;;;;5017688;28;20494;-79
2023/04/05 11:13:10;;;;;;;26.83;25.20;;;;;;;;;;5017749;28;20435;-79
2023/04/05 11:15:37;;;;;;;26.37;24.60;;;;;;;;;;5018052;28;20433;-79
2023/04/05 11:18:05;;;;;;;27.03;24.80;;;;;;;;;;5018606;28;20454;-79
2023/04/05 11:20:46;;;;;;;25.57;23.90;;;;;;;;;;5017848;28;20447;-79
2023/04/05 11:23:15;;;;;;;26.83;25.13;;;;;;;;;;5017427;28;20427;-79
2023/04/05 11:25:46;;;;;;;26.10;24.50;;;;;;;;;;5017251;28;20448;-80
2023/04/05 11:28:23;;;;;;;26.77;25.07;;;;;;;;;;5017690;28;20439;-80
2023/04/05 11:30:51;;;;;;;25.33;23.73;;;;;;;;;;5019475;28;20462;-80
2023/04/05 11:33:37;;;;;;;25.73;24.03;;;;;;;;;;5017436;28;20535;-80
2023/04/05 11:36:05;;;;;;;27.30;25.70;;;;;;;;;;5017942;28;20521;-81
2023/04/05 11:38:33;;;;;;;26.57;24.83;;;;;;;;;;5019010;28;20822;-80
2023/04/05 11:41:07;;;;;;;24.67;22.87;;;;;;;;;;5018039;28;20476;-80
2023/04/05 11:43:37;;;;;;;26.10;24.30;;;;;;;;;;5018625;28;21257;-80
2023/04/05 11:46:04;;;;;;;25.20;23.70;;;;;;;;;;5017912;28;20864;-80
2023/04/05 11:48:31;;;;;;;25.87;24.20;;;;;;;;;;5018348;28;20447;-80
2023/04/05 11:50:58;;;;;;;25.73;24.03;;;;;;;;;;5018050;28;20471;-80
2023/04/05 11:53:25;;;;;;;25.60;24.00;;;;;;;;;;5018383;28;20431;-80
2023/04/05 11:55:55;;;;;;;27.37;25.57;;;;;;;;;;5015278;28;20937;-79
2023/04/05 11:58:23;;;;;;;26.83;24.70;;;;;;;;;;5021195;28;20522;-80
2023/04/05 12:00:57;;;;;;;26.73;24.97;;;;;;;;;;5016344;28;20441;-81
2023/04/05 12:03:25;;;;;;;25.43;23.77;;;;;;;;;;5018357;28;20444;-80
2023/04/05 12:05:53;;;;;;;27.53;25.57;;;;;;;;;;5017906;28;20452;-80
2023/04/05 12:08:20;;;;;;;26.73;25.10;;;;;;;;;;5017949;28;20472;-80
2023/04/05 12:10:55;;;;;;;28.07;25.87;;;;;;;;;;5018142;28;20587;-79
2023/04/05 12:13:29;;;;;;;26.47;24.97;;;;;;;;;;5015553;28;20471;-80
2023/04/05 12:15:58;;;;;;;26.73;24.83;;;;;;;;;;5020045;28;21124;-81
2023/04/05 12:18:25;;;;;;;26.93;25.10;;;;;;;;;;5023560;28;20549;-80
2023/04/05 12:20:53;;;;;;;25.23;23.63;;;;;;;;;;5020291;28;20399;-80
2023/04/05 12:23:20;;;;;;;25.37;23.87;;;;;;;;;;5014968;28;20451;-80
2023/04/05 12:25:47;;;;;;;26.27;24.50;;;;;;;;;;5015095;28;20431;-80
2023/04/05 12:28:16;;;;;;;26.00;24.40;;;;;;;;;;5015038;28;20443;-80
2023/04/05 12:30:49;;;;;;;25.23;23.53;;;;;;;;;;5021527;28;20455;-80
2023/04/05 12:33:26;;;;;;;25.90;24.30;;;;;;;;;;5023959;28;20443;-81
2023/04/05 12:35:53;;;;;;;25.97;24.30;;;;;;;;;;5019590;28;20870;-80
2023/04/05 12:38:20;;;;;;;26.23;24.63;;;;;;;;;;5020141;28;20507;-80
2023/04/05 12:40:47;;;;;;;26.20;24.60;;;;;;;;;;5021063;28;20518;-80
2023/04/05 12:43:18;;;;;;;25.50;23.90;;;;;;;;;;5020506;28;20451;-80
2023/04/05 12:45:49;;;;;;;25.53;23.90;;;;;;;;;;5022642;28;20408;-80
2023/04/05 12:48:20;;;;;;;26.17;24.47;;;;;;;;;;5023759;28;20923;-81
2023/04/05 12:50:50;;;;;;;25.70;24.00;;;;;;;;;;5024276;28;20454;-80
2023/04/05 12:53:19;;;;;;;26.37;24.57;;;;;;;;;;5019813;28;20548;-81
2023/04/05 12:55:49;;;;;;;26.30;24.30;;;;;;;;;;5019016;28;20415;-79
2023/04/05 12:58:18;;;;;;;28.23;26.27;;;;;;;;;;5019174;28;20512;-80
2023/04/05 13:00:45;;;;;;;27.27;25.50;;;;;;;;;;5018685;28;20438;-81
2023/04/05 13:03:16;;;;;;;26.13;24.53;;;;;;;;;;5016762;28;20488;-81
2023/04/05 13:05:43;;;;;;;27.00;25.20;;;;;;;;;;5017570;28;20932;-80
2023/04/05 13:08:10;;;;;;;26.77;25.23;;;;;;;;;;5016882;28;20435;-80
2023/04/05 13:10:37;;;;;;;26.10;24.40;;;;;;;;;;5016701;28;20517;-80
2023/04/05 13:13:04;;;;;;;27.67;25.67;;;;;;;;;;5016703;28;20423;-80
2023/04/05 13:15:32;;;;;;;25.87;24.27;;;;;;;;;;5015521;28;20936;-81
2023/04/05 13:18:00;;;;;;;26.10;24.40;;;;;;;;;;5016343;28;20463;-79
2023/04/05 13:20:27;;;;;;;26.17;24.57;;;;;;;;;;5019602;28;20527;-80
2023/04/05 13:22:54;;;;;;;26.27;24.60;;;;;;;;;;5021221;28;20403;-80
2023/04/05 13:25:21;;;;;;;26.20;24.60;;;;;;;;;;5020836;28;20531;-77
2023/04/05 13:27:48;;;;;;;26.23;24.63;;;;;;;;;;5021298;28;20440;-78
2023/04/05 13:30:15;;;;;;;26.10;24.40;;;;;;;;;;5022483;28;20488;-78
2023/04/05 13:32:43;;;;;;;26.20;24.60;;;;;;;;;;5021774;28;20431;-78
2023/04/05 13:35:11;;;;;;;26.03;24.37;;;;;;;;;;5023521;28;20439;-78
2023/04/05 13:37:38;;;;;;;25.77;24.07;;;;;;;;;;5024141;28;20435;-80
2023/04/05 13:40:06;;;;;;;25.70;24.20;;;;;;;;;;5021733;28;20443;-79
2023/04/05 13:42:33;;;;;;;25.60;24.10;;;;;;;;;;5021273;28;20427;-77
2023/04/05 13:45:00;;;;;;;26.20;24.50;;;;;;;;;;5020190;28;20537;-78
2023/04/05 13:47:27;;;;;;;26.60;24.87;;;;;;;;;;5019609;28;20931;-78
2023/04/05 13:49:55;;;;;;;26.20;24.40;;;;;;;;;;5019239;28;20458;-77
2023/04/05 13:52:24;;;;;;;25.83;24.23;;;;;;;;;;5018716;28;20452;-79
2023/04/05 13:54:51;;;;;;;26.47;24.77;;;;;;;;;;5018996;28;20447;-79
2023/04/05 13:57:18;;;;;;;27.10;25.33;;;;;;;;;;5018947;28;20436;-79
2023/04/05 13:59:45;;;;;;;25.77;24.10;;;;;;;;;;5019243;28;20534;-79
2023/04/05 14:02:13;;;;;;;27.03;25.33;;;;;;;;;;5019890;28;20459;-79
2023/04/05 14:04:41;;;;;;;25.87;24.30;;;;;;;;;;5021422;28;20971;-79
2023/04/05 14:07:09;;;;;;;26.20;24.70;;;;;;;;;;5017756;28;20447;-79
2023/04/05 14:09:36;;;;;;;26.60;24.67;;;;;;;;;;5018339;28;20465;-79
2023/04/05 14:12:04;;;;;;;25.97;24.17;;;;;;;;;;5019939;28;20452;-79
2023/04/05 14:14:31;;;;;;;26.03;24.13;;;;;;;;;;5018247;28;20441;-79
2023/04/05 14:16:58;;;;;;;26.53;24.80;;;;;;;;;;5016115;28;20464;-79
2023/04/05 14:19:25;;;;;;;25.30;23.80;;;;;;;;;;5017058;28;20476;-80
2023/04/05 14:21:52;;;;;;;26.03;24.33;;;;;;;;;;5017396;28;20415;-79
2023/04/05 14:24:21;;;;;;;26.33;24.73;;;;;;;;;;5019268;28;20423;-78